Time;durP1;ratioP1;P1;durP2;ratioP2;P2;SDS_P1;SDS_P2;PMS_P1;PMS_P2;Temp;Humidity;BMP_temperature;BMP_pressure;BME280_temperature;BME280_humidity;BME280_pressure;Samples;Min_cycle;Max_cycle;Signal;HPM_P1;HPM_P2
2023/09/13 00:00:27;;;;;;;3.17;2.53;;;;;;;14.34;71.69;96725.31;5093589;28;20048;-68
2023/09/13 00:02:55;;;;;;;5.07;3.03;;;;;;;14.32;71.73;96729.81;5093413;28;20051;-64
2023/09/13 00:05:23;;;;;;;3.30;2.58;;;;;;;14.33;71.26;96724.47;5093411;28;20054;-66
2023/09/13 00:07:50;;;;;;;3.47;2.50;;;;;;;14.31;71.24;96728.97;5093240;28;20080;-70
2023/09/13 00:10:18;;;;;;;4.03;2.92;;;;;;;14.30;71.79;96719.34;5092778;28;20079;-64
2023/09/13 00:12:45;;;;;;;5.55;2.88;;;;;;;14.25;72.25;96726.66;5093305;28;20044;-68
2023/09/13 00:15:12;;;;;;;4.35;3.30;;;;;;;14.19;71.97;96722.53;5093434;28;20090;-67
2023/09/13 00:17:39;;;;;;;3.53;2.90;;;;;;;14.19;71.67;96726.94;5093249;28;20409;-62
2023/09/13 00:20:09;;;;;;;5.03;2.92;;;;;;;14.12;71.79;96716.72;5093263;28;20044;-72
2023/09/13 00:22:36;;;;;;;3.90;2.90;;;;;;;14.05;71.94;96723.22;5093135;28;20141;-70
2023/09/13 00:25:03;;;;;;;4.55;2.90;;;;;;;14.01;72.22;96721.66;5093253;28;20051;-68
2023/09/13 00:27:30;;;;;;;3.22;2.58;;;;;;;14.01;72.25;96719.91;5093122;28;20048;-62
2023/09/13 00:29:57;;;;;;;3.75;3.13;;;;;;;14.01;72.20;96722.53;5093175;28;20047;-62
2023/09/13 00:32:24;;;;;;;3.33;3.03;;;;;;;14.01;72.50;96724.31;5093197;28;20044;-61
2023/09/13 00:34:51;;;;;;;4.30;2.95;;;;;;;14.02;72.87;96720.72;5093226;28;20048;-67
2023/09/13 00:37:20;;;;;;;4.00;3.25;;;;;;;14.00;72.85;96720.81;5093123;28;20066;-67
2023/09/13 00:39:47;;;;;;;3.55;2.80;;;;;;;13.96;72.08;96726.28;5093147;28;20469;-65
2023/09/13 00:42:14;;;;;;;6.32;3.40;;;;;;;13.88;72.36;96724.06;5093077;28;20048;-68
2023/09/13 00:44:41;;;;;;;3.70;2.72;;;;;;;13.88;72.12;96724.06;5092998;28;20056;-71
2023/09/13 00:47:08;;;;;;;4.80;2.75;;;;;;;13.88;72.10;96722.25;5093081;28;20078;-62
2023/09/13 00:49:35;;;;;;;6.35;2.97;;;;;;;13.84;72.19;96725.09;5092990;28;20105;-67
2023/09/13 00:52:02;;;;;;;3.17;2.88;;;;;;;13.82;72.23;96725.19;5092998;28;20490;-65
2023/09/13 00:54:31;;;;;;;3.45;2.67;;;;;;;13.80;71.81;96734.06;5092815;28;20452;-69
2023/09/13 00:56:58;;;;;;;2.63;2.33;;;;;;;13.74;71.72;96725.56;5093157;28;20044;-71
2023/09/13 00:59:26;;;;;;;5.45;2.97;;;;;;;13.73;72.03;96717.75;5092806;28;20050;-69
2023/09/13 01:01:53;;;;;;;4.28;2.60;;;;;;;13.74;72.72;96717.69;5092926;28;20436;-68
2023/09/13 01:04:20;;;;;;;3.42;3.13;;;;;;;13.68;73.06;96719.75;5092978;28;20486;-62
2023/09/13 01:06:47;;;;;;;3.10;2.80;;;;;;;13.64;72.90;96721.69;5092834;28;20482;-68
2023/09/13 01:09:15;;;;;;;3.05;2.75;;;;;;;13.61;72.98;96714.78;5092751;28;20398;-66
2023/09/13 01:11:44;;;;;;;6.80;3.13;;;;;;;13.60;73.80;96705.19;5092848;28;20048;-65
2023/09/13 01:14:11;;;;;;;5.88;2.72;;;;;;;13.64;73.37;96708.53;5092968;28;20097;-67
2023/09/13 01:16:46;;;;;;;6.32;2.90;;;;;;;13.60;73.22;96704.31;5092742;28;20055;-68
2023/09/13 01:19:33;;;;;;;3.55;2.75;;;;;;;13.56;73.13;96700.16;5092739;28;20048;-67
2023/09/13 01:22:17;;;;;;;4.65;3.00;;;;;;;13.49;73.21;96705.69;5094880;28;20055;-64
2023/09/13 01:25:10;;;;;;;4.47;3.10;;;;;;;13.47;73.30;96711.91;5096460;28;20131;-64
2023/09/13 01:27:49;;;;;;;7.03;2.83;;;;;;;13.44;73.49;96714.69;5096375;28;20093;-66
2023/09/13 01:30:20;;;;;;;3.03;2.70;;;;;;;13.49;73.55;96710.09;5096616;28;20040;-66
2023/09/13 01:32:48;;;;;;;4.13;3.05;;;;;;;13.46;73.33;96710.22;5096317;28;20555;-69
2023/09/13 01:35:15;;;;;;;4.82;2.53;;;;;;;13.39;73.44;96710.50;5096282;28;20051;-67
2023/09/13 01:37:42;;;;;;;4.65;3.35;;;;;;;13.36;73.59;96713.28;5096371;28;20113;-67
2023/09/13 01:40:10;;;;;;;3.65;2.83;;;;;;;13.35;73.88;96705.47;5096290;28;20050;-68
2023/09/13 01:42:38;;;;;;;3.00;2.70;;;;;;;13.36;73.33;96713.28;5095958;28;20093;-64
2023/09/13 01:45:10;;;;;;;3.88;2.88;;;;;;;13.30;73.23;96708.31;5096195;28;20048;-64
2023/09/13 01:47:39;;;;;;;3.17;2.88;;;;;;;13.30;73.70;96712.72;5096158;28;20072;-64
2023/09/13 01:50:08;;;;;;;6.45;2.78;;;;;;;13.30;73.64;96712.72;5096018;28;20054;-67
2023/09/13 01:52:36;;;;;;;3.33;2.90;;;;;;;13.26;74.02;96715.50;5096079;28;20098;-67
2023/09/13 01:55:06;;;;;;;4.60;3.40;;;;;;;13.26;74.55;96712.88;5096021;28;20126;-68
2023/09/13 01:57:34;;;;;;;4.30;2.97;;;;;;;13.22;74.31;96713.06;5095827;28;20052;-70
2023/09/13 02:00:01;;;;;;;5.10;3.03;;;;;;;13.23;74.44;96714.75;5095817;28;20490;-65
2023/09/13 02:02:28;;;;;;;3.33;2.72;;;;;;;13.23;74.30;96715.63;5095856;28;20052;-67
2023/09/13 02:04:56;;;;;;;4.25;2.85;;;;;;;13.25;74.52;96719.03;5095764;28;20044;-68
2023/09/13 02:07:23;;;;;;;4.32;2.97;;;;;;;13.26;73.19;96723.38;5095688;28;20101;-68
2023/09/13 02:09:52;;;;;;;3.25;2.95;;;;;;;13.20;73.27;96728.03;5095759;28;20048;-70
2023/09/13 02:12:18;;;;;;;3.92;2.80;;;;;;;13.14;73.49;96721.28;5095623;28;20044;-65
2023/09/13 02:14:45;;;;;;;3.95;2.50;;;;;;;13.16;73.87;96724.72;5095485;28;20406;-65
2023/09/13 02:17:13;;;;;;;3.92;3.17;;;;;;;13.18;74.28;96720.22;5095428;28;20421;-70
2023/09/13 02:19:40;;;;;;;3.42;2.70;;;;;;;13.18;73.53;96722.03;5095442;28;20135;-69
2023/09/13 02:22:08;;;;;;;2.90;2.63;;;;;;;13.14;73.89;96723.91;5095326;28;20051;-62
2023/09/13 02:24:36;;;;;;;5.43;2.83;;;;;;;13.14;73.83;96721.28;5095319;28;20375;-67
2023/09/13 02:27:03;;;;;;;5.32;3.03;;;;;;;13.12;74.10;96723.13;5095461;28;20044;-66
2023/09/13 02:29:30;;;;;;;2.97;2.67;;;;;;;13.12;74.12;96716.09;5095346;28;20047;-70
2023/09/13 02:31:57;;;;;;;2.65;2.45;;;;;;;13.12;74.25;96718.75;5095150;28;20044;-64
2023/09/13 02:34:24;;;;;;;3.53;2.53;;;;;;;13.10;73.71;96717.13;5094661;28;20075;-62
2023/09/13 02:36:51;;;;;;;3.38;2.70;;;;;;;13.08;72.94;96714.56;5095023;28;20506;-72
2023/09/13 02:39:34;;;;;;;3.83;2.97;;;;;;;13.01;73.45;96718.38;5095046;28;20135;-63
2023/09/13 02:42:02;;;;;;;3.10;2.80;;;;;;;13.01;74.46;96713.13;5094907;28;20051;-65
2023/09/13 02:44:30;;;;;;;5.60;3.05;;;;;;;12.99;74.40;96715.81;5094919;28;20044;-70
2023/09/13 02:46:57;;;;;;;4.65;3.08;;;;;;;13.01;75.04;96713.97;5094875;28;20478;-66
2023/09/13 02:49:24;;;;;;;5.13;2.72;;;;;;;13.01;75.15;96707.88;5094965;28;20102;-70
2023/09/13 02:51:51;;;;;;;2.80;2.50;;;;;;;12.99;74.79;96707.09;5094742;28;20130;-66
2023/09/13 02:54:20;;;;;;;3.67;2.92;;;;;;;12.98;74.58;96708.84;5094618;28;20098;-65
2023/09/13 02:56:49;;;;;;;4.60;2.70;;;;;;;12.87;74.33;96704.09;5094765;28;20040;-68
2023/09/13 02:59:16;;;;;;;3.40;2.90;;;;;;;12.83;74.47;96699.06;5094637;28;20079;-63
2023/09/13 03:01:43;;;;;;;2.97;2.65;;;;;;;12.84;75.57;96711.25;5094632;28;20087;-66
2023/09/13 03:04:11;;;;;;;5.80;2.85;;;;;;;12.86;74.98;96707.63;5094347;28;20134;-63
2023/09/13 03:06:40;;;;;;;3.60;2.88;;;;;;;12.81;76.04;96708.75;5094519;28;20044;-66
2023/09/13 03:09:07;;;;;;;3.55;3.00;;;;;;;12.76;77.65;96714.19;5094365;28;20130;-68
2023/09/13 03:11:36;;;;;;;3.17;2.85;;;;;;;12.74;77.28;96711.66;5094326;28;20455;-66
2023/09/13 03:14:05;;;;;;;3.13;2.60;;;;;;;12.75;75.85;96713.38;5094329;28;20048;-67
2023/09/13 03:16:32;;;;;;;3.30;3.00;;;;;;;12.76;75.77;96727.31;5094331;28;20048;-70
2023/09/13 03:18:59;;;;;;;5.05;3.10;;;;;;;12.76;75.92;96722.94;5094283;28;20040;-66
2023/09/13 03:21:27;;;;;;;7.07;3.13;;;;;;;12.79;75.61;96727.19;5094338;28;20136;-68
2023/09/13 03:23:55;;;;;;;4.30;2.80;;;;;;;12.73;74.79;96720.44;5094135;28;20083;-67
2023/09/13 03:26:23;;;;;;;3.60;3.13;;;;;;;12.68;74.91;96729.44;5094275;28;20091;-62
2023/09/13 03:28:52;;;;;;;5.47;2.70;;;;;;;12.62;74.91;96733.19;5094154;28;20051;-67
2023/09/13 03:31:22;;;;;;;4.20;3.13;;;;;;;12.60;75.12;96738.50;5094184;28;20089;-64
2023/09/13 03:33:50;;;;;;;;;;;;;;;12.60;74.64;96737.66;5094540;28;20044;-69
2023/09/13 03:36:17;;;;;;;3.45;3.13;;;;;;;12.48;75.02;96734.63;5093898;28;19943;-65
2023/09/13 03:38:46;;;;;;;3.45;3.08;;;;;;;12.43;76.58;96731.34;5093899;28;20052;-65
2023/09/13 03:41:14;;;;;;;3.20;2.90;;;;;;;12.45;76.55;96737.38;5094028;28;20125;-67
2023/09/13 03:43:41;;;;;;;4.45;3.00;;;;;;;12.47;76.63;96738.19;5094013;28;20052;-63
2023/09/13 03:46:09;;;;;;;3.72;3.42;;;;;;;12.50;77.50;96722.28;5093973;28;20044;-65
2023/09/13 03:48:39;;;;;;;9.52;3.55;;;;;;;12.48;77.23;96729.38;5093814;28;20102;-66
2023/09/13 03:51:07;;;;;;;4.80;3.08;;;;;;;12.43;77.67;96728.72;5093805;28;20056;-65
2023/09/13 03:53:35;;;;;;;3.70;2.67;;;;;;;12.44;77.39;96729.59;5093629;28;20459;-65
2023/09/13 03:56:03;;;;;;;4.28;2.85;;;;;;;12.45;76.45;96732.16;5093678;28;20549;-69
2023/09/13 03:58:30;;;;;;;4.90;2.75;;;;;;;12.43;76.23;96735.75;5093628;28;20131;-66
2023/09/13 04:00:58;;;;;;;4.70;3.35;;;;;;;12.43;76.70;96733.97;5093615;28;20109;-65
2023/09/13 04:03:27;;;;;;;3.80;3.28;;;;;;;12.46;77.61;96733.00;5093481;28;20134;-64
2023/09/13 04:05:55;;;;;;;4.18;3.28;;;;;;;12.41;77.63;96737.59;5093587;28;20066;-70
2023/09/13 04:08:24;;;;;;;5.35;3.35;;;;;;;12.41;78.19;96734.97;5093259;28;20056;-66
2023/09/13 04:10:51;;;;;;;3.05;2.75;;;;;;;12.44;76.50;96740.06;5093482;28;20482;-66
2023/09/13 04:13:18;;;;;;;2.88;2.58;;;;;;;12.44;76.62;96729.59;5093348;28;20077;-69
2023/09/13 04:15:46;;;;;;;5.15;3.50;;;;;;;12.45;76.96;96733.91;5093453;28;20040;-63
2023/09/13 04:18:13;;;;;;;5.30;3.28;;;;;;;12.53;76.43;96737.06;5093413;28;20047;-65
2023/09/13 04:20:43;;;;;;;3.90;3.20;;;;;;;12.54;76.58;96736.16;5093203;28;20051;-66
2023/09/13 04:23:12;;;;;;;3.25;2.92;;;;;;;12.61;76.82;96734.97;5093246;28;20083;-64
2023/09/13 04:25:39;;;;;;;4.05;3.33;;;;;;;12.72;77.13;96734.50;5093163;28;20079;-65
2023/09/13 04:28:07;;;;;;;3.65;3.13;;;;;;;12.84;77.09;96735.72;5093228;28;20043;-67
2023/09/13 04:30:34;;;;;;;5.65;2.83;;;;;;;12.94;75.72;96735.34;5093100;28;20140;-65
2023/09/13 04:33:04;;;;;;;3.17;2.85;;;;;;;12.96;75.19;96736.09;5093105;28;20528;-68
2023/09/13 04:35:32;;;;;;;3.67;3.13;;;;;;;13.03;75.27;96737.53;5093211;28;20477;-71
2023/09/13 04:37:59;;;;;;;3.90;3.03;;;;;;;13.20;75.19;96731.53;5093148;28;20285;-70
2023/09/13 04:40:28;;;;;;;3.10;2.63;;;;;;;13.51;74.12;96740.66;5093003;28;20136;-66
2023/09/13 04:43:16;;;;;;;3.50;2.33;;;;;;;13.91;73.49;96739.69;5093133;28;20076;-64
2023/09/13 04:45:43;;;;;;;4.68;2.40;;;;;;;14.52;72.51;96742.84;5093003;28;20076;-67
2023/09/13 04:48:10;;;;;;;3.90;3.40;;;;;;;15.08;69.31;96739.13;5092989;28;20094;-69
2023/09/13 04:50:37;;;;;;;5.32;2.22;;;;;;;15.68;66.55;96746.50;5093087;28;20537;-68
2023/09/13 04:53:06;;;;;;;2.45;2.25;;;;;;;16.25;64.38;96753.88;5093010;28;20134;-66
2023/09/13 04:55:35;;;;;;;2.88;2.45;;;;;;;16.84;62.87;96749.59;5092998;28;20047;-68
2023/09/13 04:58:03;;;;;;;5.50;2.83;;;;;;;17.41;60.44;96745.31;5097198;28;20152;-68
2023/09/13 05:00:30;;;;;;;3.67;2.20;;;;;;;17.93;58.76;96747.34;5096967;28;20506;-70
2023/09/13 05:02:57;;;;;;;7.93;2.10;;;;;;;18.39;57.47;96751.44;5097048;28;20078;-65
2023/09/13 05:05:24;;;;;;;2.78;1.77;;;;;;;18.87;56.93;96749.22;5097031;28;20134;-65
2023/09/13 05:07:51;;;;;;;5.22;2.25;;;;;;;19.46;55.43;96747.81;5096717;28;20087;-68
2023/09/13 05:10:18;;;;;;;4.45;2.15;;;;;;;20.06;53.99;96747.97;5096825;28;20048;-65
2023/09/13 05:12:48;;;;;;;3.10;2.08;;;;;;;20.59;53.05;96745.91;5096968;28;20044;-63
2023/09/13 05:15:15;;;;;;;3.47;2.22;;;;;;;21.15;50.71;96756.78;5096829;28;20055;-67
2023/09/13 05:17:42;;;;;;;3.65;2.13;;;;;;;21.65;50.10;96748.44;5096531;28;20047;-63
2023/09/13 05:20:09;;;;;;;2.90;1.92;;;;;;;22.15;49.21;96749.78;5096758;28;20134;-66
2023/09/13 05:22:36;;;;;;;2.15;1.88;;;;;;;22.61;48.21;96754.13;5096522;28;20044;-64
2023/09/13 05:25:04;;;;;;;2.42;1.83;;;;;;;23.07;47.12;96752.03;5096400;28;20140;-67
2023/09/13 05:27:31;;;;;;;1.65;1.50;;;;;;;23.51;46.56;96757.16;5096953;28;20101;-68
2023/09/13 05:29:59;;;;;;;3.53;1.70;;;;;;;23.78;45.92;96755.72;5096273;28;20040;-68
2023/09/13 05:32:26;;;;;;;5.60;2.05;;;;;;;24.17;45.83;96764.81;5096242;28;20079;-65
2023/09/13 05:34:53;;;;;;;3.88;2.00;;;;;;;24.64;44.82;96764.13;5096458;28;20048;-66
2023/09/13 05:37:20;;;;;;;2.08;1.63;;;;;;;24.86;44.66;96764.78;5096442;28;20046;-67
2023/09/13 05:39:48;;;;;;;1.90;1.65;;;;;;;25.44;43.71;96760.34;5096245;28;20383;-67
2023/09/13 05:42:15;;;;;;;1.83;1.67;;;;;;;25.99;42.81;96753.31;5096218;28;20059;-64
2023/09/13 05:44:42;;;;;;;2.50;1.63;;;;;;;26.36;42.15;96756.88;5096340;28;20048;-67
2023/09/13 05:47:10;;;;;;;2.30;1.50;;;;;;;26.75;41.49;96758.38;5096322;28;20109;-63
2023/09/13 05:49:37;;;;;;;2.90;1.70;;;;;;;27.29;40.37;96761.09;5096117;28;20125;-63
2023/09/13 05:52:04;;;;;;;3.15;2.28;;;;;;;27.60;39.05;96763.28;5095928;28;20142;-67
2023/09/13 05:54:31;;;;;;;2.65;2.00;;;;;;;27.96;38.05;96760.41;5095957;28;20071;-67
2023/09/13 05:56:58;;;;;;;5.05;2.08;;;;;;;28.26;37.54;96758.13;5095880;28;20097;-65
2023/09/13 05:59:25;;;;;;;2.03;1.55;;;;;;;28.60;37.62;96753.66;5095972;28;20097;-66
2023/09/13 06:01:53;;;;;;;2.20;1.90;;;;;;;28.96;37.18;96760.56;5095893;28;20133;-62
2023/09/13 06:04:21;;;;;;;6.00;1.90;;;;;;;29.14;36.49;96768.44;5096045;28;20117;-67
2023/09/13 06:06:48;;;;;;;2.67;2.10;;;;;;;29.31;35.58;96759.53;5095535;28;20071;-66
2023/09/13 06:09:15;;;;;;;2.28;2.00;;;;;;;29.38;35.35;96768.59;5094616;28;20498;-66
2023/09/13 06:11:42;;;;;;;6.13;2.63;;;;;;;29.53;33.58;96766.00;5095707;28;20094;-65
2023/09/13 06:14:10;;;;;;;4.25;2.50;;;;;;;29.73;33.98;96762.91;5095630;28;20081;-66
2023/09/13 06:16:37;;;;;;;2.40;2.00;;;;;;;29.93;34.19;96763.34;5095463;28;20044;-64
2023/09/13 06:19:04;;;;;;;3.97;1.90;;;;;;;30.02;35.14;96759.59;5095445;28;20040;-68
2023/09/13 06:21:32;;;;;;;2.08;1.83;;;;;;;30.16;35.39;96761.72;5095338;28;20044;-66
2023/09/13 06:23:59;;;;;;;3.08;2.15;;;;;;;30.14;35.08;96761.88;5095381;28;20135;-62
2023/09/13 06:26:27;;;;;;;6.88;2.00;;;;;;;30.22;34.73;96771.81;5095395;28;20048;-63
2023/09/13 06:28:54;;;;;;;3.75;1.77;;;;;;;30.39;34.78;96767.13;5095272;28;20060;-66
2023/09/13 06:31:21;;;;;;;3.85;2.20;;;;;;;30.49;33.87;96770.44;5095138;28;20486;-68
2023/09/13 06:33:48;;;;;;;6.15;2.17;;;;;;;30.60;33.99;96769.19;5095045;28;20506;-68
2023/09/13 06:36:15;;;;;;;4.93;2.15;;;;;;;30.49;33.97;96773.13;5095237;28;20127;-67
2023/09/13 06:38:43;;;;;;;5.13;1.95;;;;;;;30.51;33.36;96772.97;5095330;28;20082;-67
2023/09/13 06:41:10;;;;;;;2.25;2.00;;;;;;;30.41;33.48;96770.50;5095082;28;20040;-68
2023/09/13 06:43:40;;;;;;;2.22;1.92;;;;;;;30.21;33.56;96770.97;5094926;28;20048;-64
2023/09/13 06:46:07;;;;;;;3.25;2.33;;;;;;;29.98;33.94;96771.72;5094913;28;20048;-66
2023/09/13 06:48:35;;;;;;;2.50;2.25;;;;;;;30.01;33.57;96775.94;5094813;28;20048;-65
2023/09/13 06:51:03;;;;;;;2.67;1.88;;;;;;;30.11;33.32;96773.03;5094850;28;20097;-67
2023/09/13 06:53:30;;;;;;;3.90;1.90;;;;;;;30.16;32.73;96776.06;5094932;28;20051;-64
2023/09/13 06:55:58;;;;;;;6.68;2.65;;;;;;;30.29;31.84;96774.63;5094680;28;20102;-64
2023/09/13 06:58:25;;;;;;;2.35;1.92;;;;;;;30.47;32.32;96780.59;5094804;28;20063;-67
2023/09/13 07:00:53;;;;;;;2.38;1.77;;;;;;;30.60;31.96;96785.38;5094868;28;20040;-63
2023/09/13 07:03:20;;;;;;;6.43;2.40;;;;;;;30.47;32.12;96780.59;5094464;28;20444;-67
2023/09/13 07:05:47;;;;;;;2.47;1.90;;;;;;;30.61;31.11;96776.25;5094568;28;20493;-68
2023/09/13 07:08:14;;;;;;;4.30;2.08;;;;;;;30.72;31.66;96784.94;5094252;28;20134;-65
2023/09/13 07:10:44;;;;;;;4.90;2.22;;;;;;;30.79;31.41;96782.41;5094622;28;20047;-66
2023/09/13 07:13:13;;;;;;;3.00;2.05;;;;;;;30.64;30.78;96775.06;5094538;28;20052;-65
2023/09/13 07:15:40;;;;;;;3.08;2.13;;;;;;;30.52;31.53;96782.75;5094332;28;20555;-67
2023/09/13 07:18:08;;;;;;;5.68;2.00;;;;;;;30.70;31.67;96787.00;5094338;28;20048;-68
2023/09/13 07:20:35;;;;;;;2.95;1.85;;;;;;;30.85;31.10;96784.38;5094315;28;20047;-67
2023/09/13 07:23:03;;;;;;;3.08;1.80;;;;;;;30.97;31.17;96788.31;5094328;28;20079;-69
2023/09/13 07:25:30;;;;;;;2.75;2.45;;;;;;;31.03;31.28;96786.72;5094404;28;20055;-65
2023/09/13 07:27:57;;;;;;;2.90;2.17;;;;;;;30.88;31.64;96784.84;5094508;28;20055;-67
2023/09/13 07:30:27;;;;;;;2.95;2.10;;;;;;;30.72;31.68;96793.03;5094233;28;20043;-67
2023/09/13 07:32:54;;;;;;;2.92;2.22;;;;;;;30.73;31.77;96784.75;5094146;28;20048;-66
2023/09/13 07:35:22;;;;;;;4.78;2.45;;;;;;;30.69;32.05;96780.75;5093972;28;20043;-67
2023/09/13 07:37:49;;;;;;;5.47;2.22;;;;;;;30.73;31.87;96782.06;5093987;28;20548;-63
2023/09/13 07:40:16;;;;;;;4.18;1.90;;;;;;;30.82;32.17;96785.56;5094032;28;20052;-64
2023/09/13 07:42:43;;;;;;;5.15;2.08;;;;;;;30.85;32.00;96790.59;5094049;28;20044;-64
2023/09/13 07:45:11;;;;;;;4.82;2.20;;;;;;;30.87;31.80;96785.88;5094058;28;20052;-64
2023/09/13 07:47:39;;;;;;;5.88;2.42;;;;;;;30.89;31.72;96783.00;5094083;28;20135;-69
2023/09/13 07:50:27;;;;;;;5.72;2.15;;;;;;;30.97;31.03;96787.50;5093889;28;20087;-65
2023/09/13 07:52:54;;;;;;;2.72;2.30;;;;;;;30.93;31.69;96776.19;5093744;28;20048;-68
2023/09/13 07:55:21;;;;;;;4.25;2.10;;;;;;;30.98;31.58;96781.91;5093656;28;20072;-66
2023/09/13 07:57:48;;;;;;;3.20;2.15;;;;;;;31.20;30.87;96783.88;5093851;28;20089;-64
2023/09/13 08:00:16;;;;;;;3.45;2.10;;;;;;;31.01;31.51;96778.00;5093440;28;20436;-63
2023/09/13 08:02:46;;;;;;;2.63;2.05;;;;;;;30.87;31.69;96783.16;5093412;28;20558;-64
2023/09/13 08:05:13;;;;;;;6.82;2.28;;;;;;;30.99;31.33;96780.03;5093436;28;20052;-63
2023/09/13 08:07:40;;;;;;;5.82;2.30;;;;;;;31.00;31.71;96779.03;5093212;28;20047;-64
2023/09/13 08:10:09;;;;;;;2.83;2.22;;;;;;;30.76;32.57;96780.91;5093549;28;20048;-64
2023/09/13 08:12:36;;;;;;;4.85;2.30;;;;;;;30.61;32.87;96783.53;5093417;28;20052;-62
2023/09/13 08:15:04;;;;;;;4.05;2.03;;;;;;;30.74;32.88;96772.13;5093371;28;20127;-63
2023/09/13 08:17:31;;;;;;;4.35;2.13;;;;;;;30.74;32.48;96772.13;5093429;28;20077;-67
2023/09/13 08:20:00;;;;;;;9.63;2.15;;;;;;;30.74;31.76;96775.66;5093402;28;20051;-66
2023/09/13 08:22:27;;;;;;;4.00;2.25;;;;;;;30.72;32.50;96769.59;5093483;28;20105;-68
2023/09/13 08:24:54;;;;;;;2.60;2.08;;;;;;;30.87;32.12;96768.81;5093201;28;20052;-66
2023/09/13 08:27:21;;;;;;;3.97;2.30;;;;;;;31.05;31.63;96757.69;5093397;28;20048;-67
2023/09/13 08:29:48;;;;;;;2.95;2.05;;;;;;;31.15;32.51;96765.53;5093320;28;20044;-64
2023/09/13 08:32:15;;;;;;;4.75;2.38;;;;;;;31.23;31.52;96765.44;5092733;28;20047;-68
2023/09/13 08:34:42;;;;;;;8.98;2.47;;;;;;;31.07;31.79;96755.66;5093115;28;20489;-65
2023/09/13 08:37:11;;;;;;;5.47;2.38;;;;;;;31.07;31.69;96752.13;5093276;28;20048;-63
2023/09/13 08:39:39;;;;;;;5.57;2.40;;;;;;;31.15;31.96;96752.88;5093147;28;20051;-66
2023/09/13 08:42:07;;;;;;;6.43;2.15;;;;;;;31.01;31.51;96746.44;5093103;28;20048;-67
2023/09/13 08:44:36;;;;;;;8.55;2.10;;;;;;;31.05;32.05;96748.75;5092872;28;20044;-66
2023/09/13 08:47:05;;;;;;;6.27;2.80;;;;;;;30.99;31.51;96740.38;5092921;28;20481;-68
2023/09/13 08:49:35;;;;;;;3.85;2.08;;;;;;;31.05;32.31;96735.25;5093144;28;20280;-69
2023/09/13 08:52:02;;;;;;;;;;;;;;;31.05;32.26;96737.94;5093369;28;20504;-67
2023/09/13 08:54:33;;;;;;;5.00;2.30;;;;;;;30.97;32.70;96739.72;5092880;28;19959;-68
2023/09/13 08:57:02;;;;;;;5.40;2.42;;;;;;;30.80;32.50;96735.50;5093025;28;20044;-67
2023/09/13 08:59:29;;;;;;;8.02;2.55;;;;;;;30.80;33.17;96722.84;5092949;28;20056;-66
2023/09/13 09:01:59;;;;;;;4.03;2.30;;;;;;;30.89;32.65;96729.84;5092905;28;20097;-63
2023/09/13 09:04:26;;;;;;;5.40;2.45;;;;;;;30.74;33.26;96726.25;5092784;28;20044;-66
2023/09/13 09:06:54;;;;;;;4.25;2.22;;;;;;;30.73;32.47;96727.28;5092815;28;20101;-64
2023/09/13 09:09:28;;;;;;;4.78;2.33;;;;;;;30.84;32.35;96726.00;5092515;28;20495;-66
2023/09/13 09:12:00;;;;;;;4.35;2.25;;;;;;;30.82;32.59;96725.34;5092916;28;20048;-63
2023/09/13 09:14:32;;;;;;;4.80;2.40;;;;;;;30.79;33.70;96726.53;5092959;28;20128;-66
2023/09/13 09:17:02;;;;;;;9.55;2.50;;;;;;;30.79;32.15;96725.72;5092866;28;20452;-67
2023/09/13 09:19:29;;;;;;;3.72;1.92;;;;;;;30.87;32.75;96723.78;5092748;28;20094;-65
2023/09/13 09:21:59;;;;;;;5.72;2.50;;;;;;;30.82;33.31;96717.25;5092719;28;20412;-63
2023/09/13 09:24:26;;;;;;;5.35;2.67;;;;;;;30.95;33.30;96717.47;5092748;28;20113;-63
2023/09/13 09:26:57;;;;;;;5.68;2.50;;;;;;;31.06;32.57;96710.75;5092666;28;20094;-65
2023/09/13 09:29:35;;;;;;;11.85;2.80;;;;;;;31.11;32.55;96713.75;5092630;28;20055;-63
2023/09/13 09:32:03;;;;;;;7.85;2.38;;;;;;;31.06;33.04;96715.34;5092557;28;20040;-67
2023/09/13 09:34:31;;;;;;;8.85;2.45;;;;;;;30.80;32.27;96709.34;5092521;28;20094;-63
2023/09/13 09:37:06;;;;;;;5.65;2.35;;;;;;;30.79;33.52;96712.22;5092529;28;20494;-66
2023/09/13 09:39:38;;;;;;;4.55;2.75;;;;;;;30.79;33.17;96718.44;5092527;28;20044;-62
2023/09/13 09:42:07;;;;;;;5.53;3.42;;;;;;;30.88;33.03;96720.06;5093331;28;20044;-64
2023/09/13 09:44:34;;;;;;;4.78;2.70;;;;;;;30.74;32.78;96710.91;5096095;28;20080;-67
2023/09/13 09:47:01;;;;;;;8.73;2.40;;;;;;;30.77;33.22;96707.00;5096014;28;20387;-65
2023/09/13 09:49:29;;;;;;;5.30;2.15;;;;;;;30.78;32.56;96700.59;5096109;28;20052;-66
2023/09/13 09:51:56;;;;;;;7.05;2.40;;;;;;;30.63;33.63;96705.91;5095952;28;20051;-66
2023/09/13 09:54:23;;;;;;;9.52;2.42;;;;;;;30.69;32.53;96701.66;5095845;28;20485;-65
2023/09/13 09:56:50;;;;;;;11.23;2.35;;;;;;;30.55;32.48;96697.91;5095988;28;20440;-64
2023/09/13 09:59:18;;;;;;;6.32;2.55;;;;;;;30.41;32.67;96704.91;5095880;28;20047;-62
2023/09/13 10:01:46;;;;;;;3.28;2.38;;;;;;;30.44;32.72;96705.41;5095748;28;20087;-66
2023/09/13 10:04:16;;;;;;;5.28;2.38;;;;;;;30.33;33.31;96697.72;5095601;28;20105;-64
2023/09/13 10:07:03;;;;;;;7.20;3.00;;;;;;;30.38;32.49;96700.72;5095708;28;20050;-61
2023/09/13 10:09:48;;;;;;;4.18;2.45;;;;;;;30.34;32.60;96702.94;5095524;28;20093;-61
2023/09/13 10:12:16;;;;;;;7.75;2.70;;;;;;;30.21;32.49;96703.56;5095611;28;20138;-64
2023/09/13 10:14:46;;;;;;;5.88;2.50;;;;;;;30.27;33.88;96692.06;5095549;28;20048;-65
2023/09/13 10:17:13;;;;;;;;;;;;;;;30.31;33.08;96694.38;5095991;28;20050;-65
2023/09/13 10:19:42;;;;;;;6.53;2.78;;;;;;;30.15;33.68;96698.84;5095408;28;19966;-65
2023/09/13 10:22:13;;;;;;;5.70;3.00;;;;;;;30.02;32.52;96697.59;5095269;28;20087;-67
2023/09/13 10:24:49;;;;;;;5.20;2.50;;;;;;;30.29;32.89;96689.16;5095424;28;20153;-66
2023/09/13 10:27:18;;;;;;;11.25;2.80;;;;;;;30.51;31.95;96700.97;5095347;28;20056;-63
2023/09/13 10:29:53;;;;;;;5.63;2.53;;;;;;;30.64;32.81;96696.81;5095282;28;20080;-64
2023/09/13 10:32:22;;;;;;;4.28;2.60;;;;;;;30.73;32.77;96698.41;5095173;28;20051;-66
2023/09/13 10:35:29;;;;;;;8.23;2.93;;;;;;;30.75;31.91;96690.13;5095308;28;20067;-64
2023/09/13 10:38:04;;;;;;;10.68;2.53;;;;;;;30.72;32.25;96687.78;5094974;28;20405;-66
2023/09/13 10:40:38;;;;;;;7.47;2.53;;;;;;;30.79;31.94;96685.25;5095182;28;20044;-67
2023/09/13 10:43:06;;;;;;;8.52;2.88;;;;;;;30.76;31.66;96683.75;5094989;28;20056;-64
2023/09/13 10:45:36;;;;;;;6.40;2.70;;;;;;;30.75;31.32;96679.31;5094919;28;20077;-62
2023/09/13 10:48:05;;;;;;;5.10;2.65;;;;;;;30.72;31.83;96685.09;5094896;28;20086;-63
2023/09/13 10:50:33;;;;;;;7.15;2.70;;;;;;;30.74;31.93;96683.06;5094901;28;20090;-65
2023/09/13 10:53:02;;;;;;;8.40;3.10;;;;;;;30.80;31.34;96676.97;5094756;28;20455;-65
2023/09/13 10:55:30;;;;;;;12.02;3.53;;;;;;;30.80;31.12;96676.09;5094196;28;20486;-64
2023/09/13 10:58:00;;;;;;;4.60;2.60;;;;;;;30.86;30.88;96673.53;5094856;28;20056;-64
2023/09/13 11:00:31;;;;;;;11.23;2.78;;;;;;;30.81;31.02;96669.69;5094848;28;20052;-67
2023/09/13 11:03:00;;;;;;;5.25;2.95;;;;;;;30.81;31.27;96661.59;5094752;28;20047;-67
2023/09/13 11:05:29;;;;;;;10.32;2.85;;;;;;;30.72;31.57;96661.66;5094607;28;20050;-68
2023/09/13 11:07:56;;;;;;;6.07;2.60;;;;;;;30.67;30.85;96658.66;5094382;28;20048;-66
2023/09/13 11:10:24;;;;;;;7.10;3.40;;;;;;;30.62;30.89;96663.78;5094518;28;20044;-64
2023/09/13 11:12:54;;;;;;;10.25;3.30;;;;;;;30.63;31.72;96655.50;5094284;28;20056;-61
2023/09/13 11:15:21;;;;;;;;;;;;;;;30.60;30.89;96653.16;5094944;28;20143;-62
2023/09/13 11:17:49;;;;;;;13.93;3.53;;;;;;;30.50;30.71;96656.13;5094413;28;20003;-65
2023/09/13 11:20:27;;;;;;;12.27;2.83;;;;;;;30.43;30.31;96655.16;5094353;28;20410;-66
2023/09/13 11:23:14;;;;;;;11.10;2.90;;;;;;;30.49;31.26;96649.03;5094270;28;20048;-65
2023/09/13 11:25:47;;;;;;;19.50;3.78;;;;;;;30.57;29.84;96648.13;5094102;28;20098;-66
2023/09/13 11:28:29;;;;;;;9.05;3.33;;;;;;;30.72;29.77;96644.59;5094232;28;20424;-68
2023/09/13 11:30:59;;;;;;;12.68;2.80;;;;;;;30.55;30.11;96649.34;5094069;28;20055;-63
2023/09/13 11:33:27;;;;;;;14.20;3.17;;;;;;;30.60;30.42;96641.53;5094045;28;20040;-67
2023/09/13 11:35:57;;;;;;;13.55;3.10;;;;;;;30.64;30.84;96643.66;5094040;28;20085;-65
2023/09/13 11:38:25;;;;;;;14.40;3.57;;;;;;;30.66;30.64;96651.59;5094092;28;20090;-67
2023/09/13 11:40:56;;;;;;;15.52;3.13;;;;;;;30.74;30.41;96647.97;5093868;28;20048;-65